Terminal Aerodrome Forecast
Issued by NWS

Home | Current Version | Previous Version | Text Only | Print | Product List | Glossary Off
Versions: 1 2 3 4 5 6 7 8 9 10 11 12 13

000
FTUS43 KMPX 152157 AAA
TAFAXN
TAF AMD
KAXN 152157Z 1522/1618 33015G22KT P6SM SCT020 OVC090
     FM160100 32014G22KT P6SM SCT100
     FM160500 31010KT P6SM SKC
     FM161300 25010KT P6SM SKC=

USA.gov is the U.S. government's official web portal to all federal, state and local government web resources and services.